Latest Coastal Weather Observations for Cape Bruny AWS

IDT60701

Issued at 3:42 pm EST Sunday 15 September 2019 (issued every 10 minutes, with the page automatically refreshed every 10 minutes)

About coastal observations | Map of coastal stations | Coastal observations for TAS | Marine services | Other Formats
Station Details ID: 094198 Name: CAPE BRUNY (CAPE BRUNY) Lat: -43.49 Lon: 147.14 Height: 59.7 m
Data from the previous 72 hours. | See also: Recent months at Cape Bruny AWS
Date/Time
EST
Wind Sea
Height
m
Swell Vis
km
Cloud Weather Temp
°C
Press
hPa
Rain since
9am
mm
Dir  Spd
kts
Gust
kts
Height
m
Period
s
Dir
15/03:30pm WSW 16 20 - - - - - - - 11.9 1006.6 0.0
15/03:00pm WSW 15 21 - - - - - - - 11.4 1006.5 0.0
15/02:30pm W 19 23 - - - - - - - 12.9 1006.7 0.0
15/02:00pm W 19 25 - - - - - - - 13.4 1007.2 0.0
15/01:34pm W 15 25 - - - - - - - 15.0 1007.2 0.0
15/01:30pm W 13 19 - - - - - - - 14.9 1007.4 0.0
15/01:24pm W 17 24 - - - - - - - 14.7 1007.5 0.0
15/01:00pm WNW 21 26 - - - - - - - 14.7 1007.5 0.0
15/12:30pm WNW 20 26 - - - - - - - 14.9 1007.8 0.0
15/12:00pm WNW 20 26 - - - - - - - 14.4 1008.2 0.0
15/11:30am WNW 19 25 - - - - - - - 14.4 1008.5 0.0
15/11:00am WNW 15 21 - - - - - - - 13.6 1008.7 0.0
15/10:30am WNW 13 19 - - - - - - - 13.8 1008.7 0.0
15/10:00am WNW 15 23 - - - - - - - 13.7 1008.9 0.0
15/09:30am WNW 15 23 - - - - - - - 13.1 1008.9 0.0
15/09:00am WNW 20 26 - - - - - - - 12.7 1008.9 0.2
15/08:30am WNW 14 20 - - - - - - - 11.9 1008.7 0.2
15/08:00am WNW 19 28 - - - - - - - 11.7 1008.6 0.2
15/07:30am W 22 27 - - - - - - - 11.5 1008.3 0.2
15/07:00am WNW 18 22 - - - - - - - 11.1 1008.3 0.2
15/06:30am W 23 29 - - - - - - - 11.4 1007.7 0.2
15/06:13am W 18 31 - - - - - - - 10.2 1007.3 0.2
15/06:00am WSW 16 21 - - - - - - - 10.8 1007.2 0.2
15/05:30am WSW 17 23 - - - - - - - 11.1 1006.8 0.2
15/05:00am WSW 19 24 - - - - - - - 11.4 1006.4 0.2
15/04:30am WSW 18 25 - - - - - - - 11.5 1006.0 0.2
15/04:18am WSW 18 28 - - - - - - - 11.6 1005.7 0.2
15/04:00am W 16 22 - - - - - - - 11.9 1005.6 0.2
15/03:30am WNW 17 22 - - - - - - - 13.1 1005.7 0.2
15/03:00am NW 21 29 - - - - - - - 13.3 1005.5 0.2
15/02:30am WNW 23 32 - - - - - - - 13.4 1005.4 0.2
15/02:00am NW 25 36 - - - - - - - 13.6 1005.6 0.2
15/01:30am WNW 24 40 - - - - - - - 13.7 1005.7 0.2
15/01:28am WNW 23 38 - - - - - - - 13.3 1006.1 0.2
15/01:00am WNW 31 43 - - - - - - - 13.6 1005.8 0.2
15/12:30am WNW 25 45 - - - - - - - 13.3 1005.9 0.2
15/12:08am WNW 28 39 - - - - - - - 13.6 1006.2 0.2
15/12:00am WNW 26 38 - - - - - - - 13.4 1006.0 0.2
 
Date/Time
EST
Wind Sea
Height
m
Swell Vis
km
Cloud Weather Temp
°C
Press
hPa
Rain since
9am
mm
Dir  Spd
kts
Gust
kts
Height
m
Period
s
Dir
14/11:59pm WNW 25 38 - - - - - - - 13.5 1005.9 0.2
14/11:30pm NW 18 29 - - - - - - - 13.4 1006.7 0.2
14/11:27pm NW 17 29 - - - - - - - 13.5 1006.8 0.2
14/11:00pm NW 16 25 - - - - - - - 13.0 1007.4 0.2
14/10:58pm NW 15 25 - - - - - - - 13.1 1007.3 0.2
14/10:30pm NNW 11 19 - - - - - - - 12.7 1007.9 0.2
14/10:00pm NNW 11 17 - - - - - - - 12.7 1008.5 0.2
14/09:30pm NNE 11 16 - - - - - - - 12.2 1009.0 0.2
14/09:00pm NNE 8 13 - - - - - - - 12.7 1010.3 0.2
14/08:30pm N 9 17 - - - - - - - 13.4 1010.9 0.2
14/08:00pm NNW 7 10 - - - - - - - 13.8 1011.2 0.2
14/07:30pm NW 15 25 - - - - - - - 14.2 1011.3 0.2
14/07:05pm NW 17 28 - - - - - - - 14.5 1010.3 0.2
14/07:00pm NW 16 21 - - - - - - - 14.5 1010.7 0.2
14/06:30pm NW 12 17 - - - - - - - 14.3 1011.2 0.2
14/06:00pm N 7 11 - - - - - - - 13.2 1011.9 0.2
14/05:30pm NNE 4 6 - - - - - - - 12.6 1012.2 0.2
14/05:00pm NE 9 13 - - - - - - - 13.4 1012.3 0.2
14/04:30pm N 10 13 - - - - - - - 14.3 1012.6 0.2
14/04:00pm NW 14 18 - - - - - - - 15.8 1013.0 0.2
14/03:30pm N 9 14 - - - - - - - 16.2 1013.4 0.2
14/03:00pm NNW 9 15 - - - - - - - 16.8 1014.1 0.2
14/02:30pm NW 6 10 - - - - - - - 17.2 1014.5 0.2
14/02:00pm WNW 8 12 - - - - - - - 16.7 1015.1 0.2
14/01:30pm WNW 7 10 - - - - - - - 16.1 1015.6 0.2
14/01:00pm WNW 8 12 - - - - - - - 15.8 1015.8 0.2
14/12:30pm WNW 12 16 - - - - - - - 15.1 1016.1 0.0
14/12:00pm WNW 13 18 - - - - - - - 14.2 1016.3 0.0
14/11:30am WNW 15 21 - - - - - - - 13.6 1016.8 0.0
14/11:00am W 11 15 - - - - - - - 14.1 1017.2 0.0
14/10:30am W 9 13 - - - - - - - 13.8 1017.6 0.0
14/10:00am WNW 8 12 - - - - - - - 12.9 1017.8 0.0
14/09:30am W 9 12 - - - - - - - 12.1 1018.0 0.0
14/09:00am W 14 19 - - - - - - - 10.6 1018.1 2.0
14/08:48am W 15 22 - - - - - - - 10.5 1018.1 2.0
14/08:30am W 9 11 - - - - - - - 10.6 1018.3 2.0
14/08:00am W 15 21 - - - - - - - 10.7 1018.2 2.0
14/07:30am WSW 14 18 - - - - - - - 9.9 1018.2 2.0
14/07:00am W 23 31 - - - - - - - 10.0 1017.6 2.0
14/06:40am W 24 34 - - - - - - - 9.7 1017.5 2.0
14/06:30am WSW 29 34 - - - - - - - 9.5 1017.4 2.0
14/06:00am W 24 36 - - - - - - - 9.7 1017.1 2.0
14/05:33am W 23 36 - - - - - - - 9.8 1016.6 2.0
14/05:30am W 22 28 - - - - - - - 9.9 1016.6 2.0
14/05:00am W 20 27 - - - - - - - 9.3 1016.1 2.0
14/04:30am W 21 29 - - - - - - - 9.6 1015.8 2.0
14/04:00am W 19 29 - - - - - - - 9.4 1015.4 2.0
14/03:34am W 22 33 - - - - - - - 9.6 1015.0 2.0
14/03:30am W 22 28 - - - - - - - 9.6 1015.0 2.0
14/03:00am W 21 27 - - - - - - - 9.2 1014.9 2.0
14/02:30am W 23 25 - - - - - - - 8.4 1014.9 2.0
14/02:00am W 25 33 - - - - - - - 8.9 1014.6 2.0
14/01:40am W 21 32 - - - - - - - 9.7 1014.7 2.0
14/01:30am W 17 21 - - - - - - - 9.9 1014.5 2.0
14/01:00am W 23 28 - - - - - - - 9.6 1014.2 2.0
14/12:30am W 23 30 - - - - - - - 9.6 1014.3 2.0
14/12:00am WSW 22 31 - - - - - - - 9.6 1014.0 2.0
 
Date/Time
EST
Wind Sea
Height
m
Swell Vis
km
Cloud Weather Temp
°C
Press
hPa
Rain since
9am
mm
Dir  Spd
kts
Gust
kts
Height
m
Period
s
Dir
13/11:42pm W 22 32 - - - - - - - 9.3 1013.7 2.0
13/11:30pm W 22 28 - - - - - - - 9.1 1013.5 2.0
13/11:00pm W 23 29 - - - - - - - 9.8 1012.9 2.0
13/10:30pm W 27 33 - - - - - - - 9.8 1012.6 2.0
13/10:12pm W 25 35 - - - - - - - 10.2 1012.0 2.0
13/10:00pm W 25 32 - - - - - - - 10.0 1011.8 2.0
13/09:30pm W 27 37 - - - - - - - 9.8 1011.3 2.0
13/09:21pm W 25 35 - - - - - - - 9.8 1011.3 2.0
13/09:00pm WSW 28 35 - - - - - - Recent precip. 10.0 1011.2 2.0
13/08:30pm WSW 31 41 - - - - - - - 9.8 1010.8 2.0
13/08:15pm WSW 29 42 - - - - - - - 9.8 1010.5 2.0
13/08:13pm WSW 28 42 - - - - - - - 9.7 1010.4 2.0
13/08:10pm WSW 25 37 - - - - - - - 9.7 1010.4 2.0
13/08:00pm WSW 26 34 - - - - - - - 9.6 1010.5 1.8
13/07:38pm W 24 34 - - - - - - - 10.2 1009.6 1.8
13/07:30pm W 25 33 - - - - - - - 10.1 1009.6 1.8
13/07:06pm W 29 43 - - - - - - - 10.2 1008.9 1.8
13/07:00pm W 28 36 - - - - - - - 10.3 1008.8 1.8
13/06:38pm W 24 34 - - - - - - - 10.2 1008.5 1.8
13/06:30pm W 26 34 - - - - - - - 10.1 1008.2 1.8
13/06:16pm W 25 35 - - - - - - - 10.0 1008.0 1.8
13/06:00pm W 24 32 - - - - - - Recent precip. 9.8 1008.0 1.8
13/05:31pm W 21 31 - - - - - - - 9.2 1008.0 1.8
13/05:30pm W 22 31 - - - - - - - 9.0 1008.0 1.8
13/05:25pm W 21 31 - - - - - - - 9.0 1007.8 1.8
13/05:00pm W 29 37 - - - - - - - 8.7 1007.8 1.6
13/04:39pm W 25 36 - - - - - - - 9.9 1007.9 0.4
13/04:32pm W 19 30 - - - - - - - 10.0 1007.8 0.4
13/04:30pm WNW 18 24 - - - - - - - 10.4 1007.8 0.4
13/04:29pm WNW 18 24 - - - - - - - 10.3 1007.6 0.2
13/04:19pm NW 22 32 - - - - - - - 10.4 1006.9 0.0
13/04:00pm NW 21 28 - - - - - - - 11.0 1006.7 0.0
13/03:35pm NW 19 30 - - - - - - - 11.0 1006.8 0.0
13/03:30pm NW 19 25 - - - - - - - 10.8 1006.8 0.0
13/03:07pm NW 17 27 - - - - - - - 10.5 1007.3 0.0
13/03:00pm NW 15 19 - - - - - - - 10.9 1007.5 0.0
13/02:30pm NNW 11 16 - - - - - - - 10.7 1008.1 0.0
13/02:00pm N 10 15 - - - - - - - 10.8 1008.2 0.0
13/01:30pm NNW 13 21 - - - - - - - 10.6 1008.4 0.0
13/01:00pm NE 8 14 - - - - - - - 10.2 1009.3 0.0
13/12:59pm NE 8 14 - - - - - - - 10.2 1009.3 0.0
13/12:30pm N 6 13 - - - - - - - 10.5 1011.4 0.0
13/12:00pm NW 10 18 - - - - - - - 10.8 1012.2 0.0
13/11:30am N 5 8 - - - - - - - 10.8 1013.1 0.0
13/11:00am NW 10 15 - - - - - - - 10.9 1013.5 0.0
13/10:30am NW 9 13 - - - - - - - 10.9 1014.0 0.0
13/10:00am WNW 13 19 - - - - - - - 10.7 1015.1 0.0
13/09:30am NW 11 13 - - - - - - - 10.6 1015.3 0.0
13/09:00am N 7 11 - - - - - - - 10.8 1015.6 0.6
13/08:30am N 6 9 - - - - - - - 10.6 1015.7 0.6
13/08:00am N 6 8 - - - - - - - 9.3 1016.1 0.6
13/07:30am N 7 10 - - - - - - - 8.9 1016.5 0.6
13/07:00am N 8 10 - - - - - - - 8.1 1016.6 0.6
13/06:30am N 8 11 - - - - - - - 7.6 1016.6 0.6
13/06:00am NNW 10 16 - - - - - - - 8.2 1016.3 0.6
13/05:30am NW 16 21 - - - - - - - 9.1 1016.4 0.6
13/05:00am NW 12 15 - - - - - - - 8.8 1016.5 0.6
13/04:30am NW 9 12 - - - - - - - 9.1 1016.6 0.6
13/04:00am WNW 7 10 - - - - - - - 8.4 1016.4 0.6
13/03:30am WNW 5 6 - - - - - - - 7.8 1016.5 0.6
13/03:00am W 12 15 - - - - - - - 9.3 1016.8 0.6
13/02:30am WSW 18 23 - - - - - - - 9.4 1016.8 0.6
13/02:00am W 16 21 - - - - - - - 9.5 1016.8 0.6
13/01:30am W 18 24 - - - - - - - 9.4 1017.1 0.6
13/01:00am W 15 21 - - - - - - - 9.5 1017.2 0.6
13/12:30am WSW 21 26 - - - - - - - 9.5 1017.2 0.6
13/12:03am WSW 24 34 - - - - - - - 9.5 1016.9 0.6
13/12:00am WSW 25 34 - - - - - - - 9.5 1016.9 0.6
 
Date/Time
EST
Wind Sea
Height
m
Swell Vis
km
Cloud Weather Temp
°C
Press
hPa
Rain since
9am
mm
Dir  Spd
kts
Gust
kts
Height
m
Period
s
Dir
12/11:30pm WSW 23 30 - - - - - - - 9.6 1016.9 0.6
12/11:00pm W 19 26 - - - - - - - 9.1 1016.3 0.6
12/10:48pm W 19 29 - - - - - - - 9.3 1016.3 0.6
12/10:30pm WSW 21 25 - - - - - - - 9.1 1016.2 0.6
12/10:14pm W 19 29 - - - - - - - 9.3 1016.2 0.6
12/10:00pm WSW 20 27 - - - - - - - 9.2 1016.2 0.6
12/09:33pm W 20 30 - - - - - - - 9.1 1016.0 0.6
12/09:30pm W 19 28 - - - - - - - 9.1 1016.0 0.6
12/09:20pm W 23 33 - - - - - - - 8.8 1016.0 0.6
12/09:00pm WSW 25 33 - - - - - - Recent precip. 9.5 1016.0 0.6
12/08:40pm W 23 33 - - - - - - - 9.3 1015.8 0.6
12/08:30pm WSW 25 32 - - - - - - - 9.5 1015.6 0.6
12/08:22pm WSW 21 32 - - - - - - - 9.4 1015.6 0.4
12/08:00pm W 20 27 - - - - - - - 8.8 1015.4 0.4
12/07:30pm W 23 33 - - - - - - - 8.9 1015.1 0.4
12/07:17pm W 18 28 - - - - - - - 8.8 1014.7 0.4
12/07:00pm W 25 32 - - - - - - - 9.1 1014.3 0.4
12/06:39pm WSW 23 34 - - - - - - - 9.3 1013.8 0.4
12/06:30pm W 20 29 - - - - - - - 9.3 1013.6 0.4
12/06:05pm W 19 29 - - - - - - - 8.7 1013.3 0.4
12/06:00pm W 17 22 - - - - - - Recent precip. 8.8 1013.3 0.4
12/05:46pm W 22 27 - - - - - - - 8.3 1012.9 0.4
12/05:36pm W 30 40 - - - - - - - 8.3 1012.6 0.4
12/05:30pm W 31 40 - - - - - - - 8.4 1012.5 0.4
12/05:28pm W 31 40 - - - - - - - 8.1 1012.4 0.4
12/05:19pm W 23 33 - - - - - - - 8.5 1012.6 0.4
12/05:00pm WSW 22 29 - - - - - - - 9.3 1012.4 0.2
12/04:30pm W 28 40 - - - - - - - 10.0 1011.5 0.2
12/04:22pm W 25 40 - - - - - - - 10.1 1011.2 0.2
12/04:00pm W 21 27 - - - - - - - 10.0 1011.2 0.2

Other formats

Comma delimited format used in spreadsheet applications
http://www.bom.gov.au/fwo/IDT60701/IDT60701.95967.axf

JavaScript Object Notation format (JSON) in row-major order
http://www.bom.gov.au/fwo/IDT60701/IDT60701.95967.json

Data quality

Most of these data are generated automatically and are frequently updated. Quality checks on data are not normally performed. It is possible for incorrect values to appear. Refer to information at About Latest Weather Observations and please check the disclaimer before using these data.